Time;durP1;ratioP1;P1;durP2;ratioP2;P2;SDS_P1;SDS_P2;PMS_P1;PMS_P2;Temp;Humidity;BMP_temperature;BMP_pressure;BME280_temperature;BME280_humidity;BME280_pressure;Samples;Min_cycle;Max_cycle;Signal;HPM_P1;HPM_P2
2022/01/08 00:01:19;;;;;;;1.00;1.00;;;;;;;1.95;76.45;98422.66;4898318;29;20029;-73
2022/01/08 00:03:44;;;;;;;0.50;0.50;;;;;;;1.93;78.04;98424.31;4898192;29;20487;-73
2022/01/08 00:06:11;;;;;;;0.60;0.60;;;;;;;1.87;78.15;98421.72;4892886;29;20075;-72
2022/01/08 00:08:36;;;;;;;0.70;0.70;;;;;;;1.79;76.43;98422.50;4887810;29;20479;-73
2022/01/08 00:11:02;;;;;;;0.60;0.60;;;;;;;1.98;75.16;98403.13;4898189;29;20060;-73
2022/01/08 00:13:27;;;;;;;0.98;0.98;;;;;;;1.85;76.56;98410.63;4898191;29;20394;-72
2022/01/08 00:15:53;;;;;;;0.90;0.90;;;;;;;1.72;77.33;98402.84;4897580;29;20394;-73
2022/01/08 00:18:18;;;;;;;0.50;0.50;;;;;;;1.65;77.72;98393.41;4898043;29;20069;-73
2022/01/08 00:20:43;;;;;;;0.75;0.75;;;;;;;1.62;78.72;98377.19;4897759;29;20032;-72
2022/01/08 00:23:10;;;;;;;0.52;0.52;;;;;;;1.69;77.24;98378.94;4897900;29;20036;-72
2022/01/08 00:25:35;;;;;;;0.88;0.88;;;;;;;1.67;77.83;98371.28;4897816;29;20032;-72
2022/01/08 00:28:00;;;;;;;0.60;0.60;;;;;;;1.62;77.79;98356.75;4897661;29;20075;-72
2022/01/08 00:30:26;;;;;;;0.60;0.60;;;;;;;1.61;77.97;98366.13;4897759;29;20386;-72
2022/01/08 00:32:52;;;;;;;0.60;0.60;;;;;;;1.58;78.30;98360.97;4897728;29;20434;-72
2022/01/08 00:35:17;;;;;;;0.60;0.60;;;;;;;1.61;79.06;98365.25;4897480;29;20028;-72
2022/01/08 00:37:42;;;;;;;0.60;0.60;;;;;;;1.62;77.79;98352.50;4888332;29;20028;-73
2022/01/08 00:40:10;;;;;;;0.52;0.52;;;;;;;1.64;77.50;98340.59;4891706;29;20053;-72
2022/01/08 00:42:37;;;;;;;0.80;0.80;;;;;;;1.64;77.69;98338.03;4897484;29;20035;-72
2022/01/08 00:45:04;;;;;;;0.60;0.60;;;;;;;1.67;78.44;98350.00;4897411;29;20040;-73
2022/01/08 00:47:29;;;;;;;0.50;0.50;;;;;;;1.77;77.77;98334.78;4897313;29;20029;-72
2022/01/08 00:49:54;;;;;;;0.63;0.63;;;;;;;1.78;77.08;98333.94;4897269;29;20142;-72
2022/01/08 00:52:20;;;;;;;0.60;0.60;;;;;;;1.83;76.58;98333.13;4897510;29;20034;-72
2022/01/08 00:54:45;;;;;;;0.60;0.60;;;;;;;1.85;77.07;98334.88;4897337;29;20087;-72
2022/01/08 00:57:10;;;;;;;0.68;0.68;;;;;;;1.79;77.67;98330.56;4897008;29;20503;-72
2022/01/08 00:59:36;;;;;;;0.98;0.98;;;;;;;1.84;77.68;98319.50;4897290;29;20029;-72
2022/01/08 08:01:28;;;;;;;0.60;0.60;;;;;;;1.24;95.11;98548.56;5419060;23;20422;-73
2022/01/08 08:03:53;;;;;;;0.60;0.60;;;;;;;1.21;95.87;98554.47;4917159;29;20044;-72
2022/01/08 08:06:18;;;;;;;0.50;0.50;;;;;;;1.29;95.50;98555.44;4916950;29;20111;-72
2022/01/08 08:08:44;;;;;;;0.63;0.63;;;;;;;1.44;96.57;98571.81;4916779;29;20016;-73
2022/01/08 08:11:10;;;;;;;0.60;0.60;;;;;;;1.41;96.35;98582.00;4916996;29;20513;-72
2022/01/08 08:13:35;;;;;;;0.50;0.50;;;;;;;1.38;97.41;98581.94;4917442;29;20044;-66
2022/01/08 08:16:00;;;;;;;1.00;1.00;;;;;;;1.45;97.25;98581.19;4916603;29;20418;-66
2022/01/08 08:18:26;;;;;;;0.90;0.90;;;;;;;1.48;97.43;98583.78;4916818;29;20092;-66
2022/01/08 08:20:52;;;;;;;1.30;1.27;;;;;;;1.35;98.37;98608.25;4916907;29;20049;-66
2022/01/08 08:23:17;;;;;;;2.63;1.50;;;;;;;1.25;99.30;98597.06;4916751;29;20361;-66
2022/01/08 08:25:42;;;;;;;0.70;0.70;;;;;;;1.19;99.11;98607.16;4916653;29;20347;-66
2022/01/08 08:28:08;;;;;;;1.52;1.42;;;;;;;1.26;99.26;98609.00;4916808;29;20071;-66
2022/01/08 08:30:34;;;;;;;0.95;0.95;;;;;;;1.29;99.40;98614.13;4916533;29;20082;-66
2022/01/08 08:33:03;;;;;;;0.70;0.70;;;;;;;1.34;99.37;98615.91;4916657;29;20481;-66
2022/01/08 08:35:29;;;;;;;0.68;0.68;;;;;;;1.45;99.50;98619.47;4916531;29;20036;-66
2022/01/08 08:37:54;;;;;;;0.45;0.45;;;;;;;1.47;99.33;98623.78;4916198;29;20024;-66
2022/01/08 08:40:19;;;;;;;0.70;0.70;;;;;;;1.53;98.07;98625.56;4916291;29;20071;-66
2022/01/08 08:42:45;;;;;;;0.75;0.75;;;;;;;1.60;97.87;98629.94;4916529;29;20501;-66
2022/01/08 08:45:11;;;;;;;1.52;1.42;;;;;;;1.72;97.21;98636.91;4916236;29;20106;-66
2022/01/08 08:47:39;;;;;;;2.72;1.30;;;;;;;1.68;96.38;98633.47;4916211;29;20112;-66
2022/01/08 08:50:06;;;;;;;0.70;0.70;;;;;;;1.83;96.28;98637.06;4916197;29;20111;-66
2022/01/08 08:52:32;;;;;;;0.60;0.60;;;;;;;1.84;96.42;98639.66;4916192;29;20123;-66
2022/01/08 08:54:57;;;;;;;0.85;0.85;;;;;;;1.90;95.75;98644.00;4916756;29;20602;-66
2022/01/08 08:57:22;;;;;;;1.42;1.42;;;;;;;1.75;95.46;98648.06;4916160;29;20040;-66
2022/01/08 08:59:48;;;;;;;1.95;0.98;;;;;;;1.69;95.09;98655.63;4916168;29;20024;-66
2022/01/08 09:02:13;;;;;;;0.60;0.60;;;;;;;1.75;94.78;98655.72;4916045;29;20078;-66
2022/01/08 09:04:40;;;;;;;0.35;0.35;;;;;;;1.91;94.92;98658.47;4916191;29;20067;-66
2022/01/08 09:07:06;;;;;;;6.22;1.23;;;;;;;1.87;92.28;98665.25;4915775;29;20027;-66
2022/01/08 09:09:31;;;;;;;0.60;0.60;;;;;;;1.86;92.16;98672.88;4915864;29;20020;-66
2022/01/08 09:11:57;;;;;;;0.70;0.70;;;;;;;2.00;92.05;98659.47;4915962;29;20393;-66
2022/01/08 09:14:22;;;;;;;1.02;1.02;;;;;;;2.05;90.25;98673.16;4915997;29;20149;-66
2022/01/08 09:16:51;;;;;;;1.20;1.02;;;;;;;2.25;88.69;98673.44;4915597;29;20382;-66
2022/01/08 09:19:18;;;;;;;0.60;0.60;;;;;;;2.30;88.25;98676.91;4916053;29;20076;-66
2022/01/08 09:21:44;;;;;;;0.50;0.50;;;;;;;2.41;88.13;98683.88;4915755;29;20075;-66
2022/01/08 09:24:11;;;;;;;1.88;1.73;;;;;;;2.35;87.69;98684.66;4915945;29;20055;-66
2022/01/08 09:26:36;;;;;;;2.63;2.45;;;;;;;2.37;86.67;98684.66;4915791;29;20114;-66
2022/01/08 09:29:02;;;;;;;0.70;0.70;;;;;;;2.49;87.02;98689.94;4915373;29;20107;-66
2022/01/08 09:31:27;;;;;;;0.50;0.50;;;;;;;2.41;84.61;98692.38;4915697;29;20494;-66
2022/01/08 09:33:53;;;;;;;0.52;0.52;;;;;;;2.33;84.88;98690.59;4915886;29;20119;-66
2022/01/08 09:36:18;;;;;;;0.60;0.60;;;;;;;2.54;84.88;98693.41;4915426;29;20032;-66
2022/01/08 09:38:44;;;;;;;0.60;0.60;;;;;;;2.57;84.74;98701.13;4915633;29;20382;-66
2022/01/08 09:41:09;;;;;;;1.17;0.70;;;;;;;2.57;82.75;98701.13;4915645;29;20114;-66
2022/01/08 09:43:36;;;;;;;0.50;0.50;;;;;;;2.62;82.66;98709.72;4916067;29;20063;-66
2022/01/08 09:46:01;;;;;;;0.65;0.65;;;;;;;2.62;82.86;98709.72;4915348;29;20024;-66
2022/01/08 09:48:27;;;;;;;4.07;2.17;;;;;;;2.89;82.34;98709.19;4915471;29;20107;-66
2022/01/08 09:50:52;;;;;;;1.60;1.50;;;;;;;2.75;81.54;98716.69;4915493;29;20028;-66
2022/01/08 09:53:17;;;;;;;2.15;2.05;;;;;;;2.71;81.00;98725.19;4915773;29;20024;-65
2022/01/08 09:55:43;;;;;;;0.50;0.50;;;;;;;2.73;80.11;98713.25;4915535;29;20420;-66
2022/01/08 09:58:09;;;;;;;1.33;1.33;;;;;;;2.72;78.52;98719.22;4915515;29;20082;-66
2022/01/08 10:00:37;;;;;;;0.60;0.60;;;;;;;2.93;78.11;98720.31;4915492;29;20028;-66
2022/01/08 10:03:18;;;;;;;0.50;0.50;;;;;;;2.96;78.29;98720.38;4915554;29;20429;-66
2022/01/08 10:05:50;;;;;;;0.50;0.50;;;;;;;3.19;78.29;98716.34;4915413;29;20059;-66
2022/01/08 10:08:21;;;;;;;0.50;0.50;;;;;;;3.22;78.78;98711.25;4915404;29;20087;-67
2022/01/08 10:11:00;;;;;;;0.70;0.70;;;;;;;3.61;77.18;98717.59;4915339;29;20036;-66
2022/01/08 10:13:32;;;;;;;0.88;0.88;;;;;;;3.63;75.86;98718.47;4915463;29;20444;-66
2022/01/08 10:18:43;;;;;;;1.10;1.10;;;;;;;3.51;75.18;98720.91;4915584;29;20116;-66
2022/01/08 10:21:19;;;;;;;0.60;0.60;;;;;;;3.68;74.95;98714.25;4915484;29;20444;-72
2022/01/08 10:23:48;;;;;;;0.50;0.50;;;;;;;4.25;72.05;98718.06;4915369;29;20055;-72
2022/01/08 10:26:17;;;;;;;0.75;0.75;;;;;;;3.97;72.31;98716.19;4915245;29;20028;-72
2022/01/08 10:28:56;;;;;;;0.40;0.40;;;;;;;3.91;72.71;98721.25;4929741;29;20032;-72
2022/01/08 10:31:27;;;;;;;0.45;0.45;;;;;;;4.86;68.81;98720.94;4915407;29;20032;-72
2022/01/08 10:34:00;;;;;;;0.80;0.80;;;;;;;4.39;69.75;98716.44;4915257;29;20063;-72
2022/01/08 10:36:28;;;;;;;0.40;0.40;;;;;;;5.90;63.94;98703.13;4915121;29;20594;-72
2022/01/08 10:38:56;;;;;;;0.50;0.50;;;;;;;7.17;59.46;98701.91;4907259;29;20028;-72
2022/01/08 10:41:23;;;;;;;1.20;0.98;;;;;;;7.84;57.50;98693.72;4918055;29;20410;-72
2022/01/08 10:44:03;;;;;;;0.50;0.50;;;;;;;8.22;54.80;98684.78;4918549;29;20032;-72
2022/01/08 10:46:29;;;;;;;0.60;0.60;;;;;;;8.19;53.95;98692.53;4918198;29;20497;-72
2022/01/08 10:48:54;;;;;;;0.60;0.60;;;;;;;7.44;56.59;98703.44;4918458;29;20028;-71
2022/01/08 10:51:26;;;;;;;0.68;0.68;;;;;;;8.19;53.57;98697.69;4918391;29;20035;-73
2022/01/08 10:53:56;;;;;;;0.55;0.55;;;;;;;7.46;55.41;98706.91;4918730;29;20115;-71
2022/01/08 10:56:31;;;;;;;0.60;0.60;;;;;;;6.15;59.10;98713.44;4918149;29;20043;-69
2022/01/08 10:59:08;;;;;;;0.52;0.52;;;;;;;6.57;58.14;98716.75;4918321;29;20028;-66
2022/01/08 11:01:36;;;;;;;0.40;0.40;;;;;;;6.24;59.16;98723.72;4918074;29;20039;-66
2022/01/08 11:04:01;;;;;;;0.52;0.52;;;;;;;5.36;61.18;98720.22;4918308;29;20028;-66
2022/01/08 11:06:26;;;;;;;0.50;0.50;;;;;;;4.99;62.41;98733.84;4918092;29;20035;-66
2022/01/08 11:09:02;;;;;;;0.65;0.65;;;;;;;4.63;63.32;98728.53;4917972;29;20469;-66
2022/01/08 11:11:31;;;;;;;0.50;0.50;;;;;;;3.93;66.00;98729.81;4932511;29;20034;-66
2022/01/08 11:14:06;;;;;;;0.50;0.50;;;;;;;3.59;66.91;98732.94;4918221;29;20020;-66
2022/01/08 11:16:34;;;;;;;0.50;0.50;;;;;;;3.49;66.72;98727.75;4917783;29;20028;-66
2022/01/08 11:19:03;;;;;;;2.15;1.33;;;;;;;3.23;67.78;98730.03;4917981;29;20103;-66
2022/01/08 11:21:30;;;;;;;0.70;0.70;;;;;;;3.38;67.84;98729.31;4917905;29;20261;-66
2022/01/08 11:23:59;;;;;;;8.52;2.05;;;;;;;3.14;65.98;98730.78;4918000;29;20039;-66
2022/01/08 11:26:26;;;;;;;0.80;0.80;;;;;;;2.93;65.24;98722.88;4917688;29;20394;-66
2022/01/08 11:28:55;;;;;;;0.82;0.82;;;;;;;2.95;65.21;98718.63;4917734;29;20099;-66
2022/01/08 11:31:23;;;;;;;0.63;0.63;;;;;;;4.11;62.96;98705.19;4917711;29;20175;-66
2022/01/08 11:33:55;;;;;;;2.05;1.25;;;;;;;4.04;63.67;98697.41;4917968;29;20667;-65
2022/01/08 11:36:23;;;;;;;0.93;0.93;;;;;;;6.85;56.47;98682.31;4917595;29;20024;-66
2022/01/08 11:38:49;;;;;;;0.75;0.65;;;;;;;8.99;50.09;98664.94;4917492;29;20549;-66
2022/01/08 11:41:15;;;;;;;0.40;0.40;;;;;;;9.61;46.90;98658.84;4917362;29;20035;-66
2022/01/08 11:43:42;;;;;;;0.95;0.93;;;;;;;10.14;44.95;98654.50;4917820;29;20482;-66
2022/01/08 11:46:08;;;;;;;3.45;0.88;;;;;;;9.74;45.60;98656.06;4917392;29;20027;-66
2022/01/08 11:48:38;;;;;;;0.98;0.80;;;;;;;7.71;50.76;98666.31;4917457;29;20086;-66
2022/01/08 11:51:06;;;;;;;1.10;1.00;;;;;;;6.97;53.29;98675.41;4917152;29;20090;-66
2022/01/08 11:53:34;;;;;;;5.80;0.68;;;;;;;5.77;55.60;98680.00;4917273;29;20038;-66
2022/01/08 11:56:05;;;;;;;2.13;2.03;;;;;;;5.01;58.83;98685.91;4917071;29;20545;-66
2022/01/08 11:58:35;;;;;;;2.72;2.50;;;;;;;4.81;59.65;98678.16;4917272;29;20048;-66
2022/01/08 12:01:04;;;;;;;0.50;0.50;;;;;;;4.81;60.40;98673.88;4917202;29;20115;-66
2022/01/08 12:03:37;;;;;;;0.70;0.70;;;;;;;4.64;59.48;98675.50;4917149;29;20038;-66
2022/01/08 12:06:39;;;;;;;2.40;0.85;;;;;;;4.56;61.62;98672.06;4917084;29;20028;-66
2022/01/08 12:09:10;;;;;;;1.13;0.95;;;;;;;4.70;62.31;98669.56;4917089;29;20036;-66
2022/01/08 12:11:41;;;;;;;0.57;0.57;;;;;;;4.33;61.42;98659.97;4916947;29;20036;-66
2022/01/08 12:14:12;;;;;;;1.40;1.30;;;;;;;4.01;62.96;98651.25;4917010;29;20128;-66
2022/01/08 12:16:40;;;;;;;1.00;1.00;;;;;;;3.85;62.89;98646.03;4914518;29;20024;-66
2022/01/08 12:19:09;;;;;;;0.40;0.40;;;;;;;3.83;64.67;98647.75;4916862;29;20386;-66
2022/01/08 12:21:37;;;;;;;2.22;0.90;;;;;;;5.50;61.70;98634.59;4916898;29;20031;-66
2022/01/08 12:24:27;;;;;;;2.13;1.92;;;;;;;5.80;58.96;98629.44;4916758;29;20042;-66
2022/01/08 12:26:57;;;;;;;0.60;0.60;;;;;;;5.27;60.24;98617.47;4916642;29;20091;-66
2022/01/08 12:29:40;;;;;;;2.55;0.80;;;;;;;5.13;60.83;98619.19;4916481;29;20028;-65
2022/01/08 12:32:36;;;;;;;3.53;2.25;;;;;;;4.93;64.28;98615.69;4916804;29;20397;-66
2022/01/08 12:35:18;;;;;;;4.63;2.28;;;;;;;4.34;62.67;98625.78;4916674;29;20024;-66
2022/01/08 12:37:50;;;;;;;2.50;2.17;;;;;;;4.19;63.91;98620.59;4916156;29;20631;-66
2022/01/08 12:40:39;;;;;;;1.75;1.30;;;;;;;3.97;63.51;98608.53;4916387;29;20024;-66
2022/01/08 12:43:35;;;;;;;2.53;1.83;;;;;;;3.77;65.04;98610.94;4915579;29;20027;-65
2022/01/08 12:46:21;;;;;;;0.70;0.70;;;;;;;3.90;63.97;98599.94;4916166;29;20281;-66
2022/01/08 12:49:05;;;;;;;2.80;2.53;;;;;;;4.59;63.23;98603.66;4916051;29;20118;-66
2022/01/08 12:51:48;;;;;;;2.60;1.45;;;;;;;4.78;62.13;98586.56;4916360;29;20035;-66
2022/01/08 12:54:17;;;;;;;1.55;1.45;;;;;;;4.27;64.43;98593.28;4916179;29;20028;-66
2022/01/08 12:56:51;;;;;;;0.63;0.63;;;;;;;4.45;63.06;98583.94;4916083;29;20038;-66
2022/01/08 12:59:17;;;;;;;0.60;0.60;;;;;;;4.74;63.33;98579.75;4916154;29;20025;-66
2022/01/08 13:01:49;;;;;;;2.17;1.98;;;;;;;4.94;63.10;98566.94;4915991;29;20043;-66
2022/01/08 13:04:18;;;;;;;0.50;0.50;;;;;;;4.95;62.81;98557.53;4915664;29;20036;-66
2022/01/08 13:06:45;;;;;;;2.13;1.92;;;;;;;5.02;62.54;98560.09;4915641;29;20030;-66
2022/01/08 13:09:11;;;;;;;18.23;3.17;;;;;;;5.43;61.62;98548.97;4916029;29;20119;-66
2022/01/08 13:11:39;;;;;;;4.68;1.45;;;;;;;5.27;61.45;98544.69;4916069;29;20024;-66
2022/01/08 13:14:07;;;;;;;0.50;0.50;;;;;;;5.45;61.25;98528.41;4916225;29;20486;-66
2022/01/08 13:16:41;;;;;;;0.70;0.70;;;;;;;5.38;60.99;98533.56;4915595;29;20032;-66
2022/01/08 13:19:10;;;;;;;0.77;0.77;;;;;;;5.43;60.09;98525.00;4915924;29;20024;-66
2022/01/08 13:21:39;;;;;;;4.13;1.90;;;;;;;5.17;60.23;98520.72;4916191;29;20462;-66
2022/01/08 13:24:32;;;;;;;0.82;0.82;;;;;;;4.77;61.33;98518.16;4915996;29;20032;-66
2022/01/08 13:27:03;;;;;;;6.10;2.58;;;;;;;4.78;62.96;98509.59;4915592;29;20057;-66
2022/01/08 13:29:34;;;;;;;9.00;4.30;;;;;;;4.34;61.54;98501.81;4915761;29;20427;-66
2022/01/08 13:32:01;;;;;;;2.47;1.98;;;;;;;4.24;63.79;98495.81;4915689;29;20043;-66
2022/01/08 13:34:38;;;;;;;9.20;3.00;;;;;;;4.49;64.60;98491.59;4915805;29;20511;-67
2022/01/08 13:37:17;;;;;;;1.38;1.35;;;;;;;4.29;61.86;98488.13;4915468;29;20054;-67
2022/01/08 13:39:43;;;;;;;6.10;1.08;;;;;;;3.93;62.63;98478.66;4915611;29;20024;-66
2022/01/08 13:42:12;;;;;;;5.25;2.28;;;;;;;3.82;63.42;98479.47;4915458;29;20111;-69
2022/01/08 13:44:39;;;;;;;7.30;2.58;;;;;;;3.74;63.19;98473.44;4915745;29;20024;-69
2022/01/08 13:47:05;;;;;;;2.10;1.77;;;;;;;3.57;63.28;98467.38;4915750;29;20032;-67
2022/01/08 13:49:30;;;;;;;7.40;1.83;;;;;;;3.55;63.92;98463.97;4915559;29;20533;-66
2022/01/08 13:51:56;;;;;;;0.77;0.77;;;;;;;3.48;65.61;98465.66;4915427;29;20036;-67
2022/01/08 13:54:34;;;;;;;3.70;2.13;;;;;;;3.46;64.88;98462.19;4915713;29;20393;-64
2022/01/08 13:57:15;;;;;;;0.47;0.47;;;;;;;3.32;65.60;98451.88;4915420;29;20683;-63
2022/01/08 13:59:41;;;;;;;3.95;3.05;;;;;;;3.41;66.49;98450.22;4915563;29;20032;-63
2022/01/08 14:02:08;;;;;;;4.15;1.52;;;;;;;3.38;65.71;98445.09;4915281;29;20082;-63
2022/01/08 14:04:36;;;;;;;2.08;1.95;;;;;;;3.21;65.98;98437.31;4915509;29;20079;-63
2022/01/08 14:07:01;;;;;;;2.47;1.30;;;;;;;3.06;67.78;98433.81;4915085;29;20027;-63
2022/01/08 14:09:27;;;;;;;0.65;0.65;;;;;;;3.15;67.90;98424.50;4915277;29;20509;-66
2022/01/08 14:12:09;;;;;;;0.98;0.98;;;;;;;3.15;68.15;98414.25;4915357;29;20068;-66
2022/01/08 14:14:48;;;;;;;0.60;0.60;;;;;;;3.13;68.15;98406.56;4917674;29;20035;-69
2022/01/08 14:17:16;;;;;;;0.95;0.95;;;;;;;3.19;68.23;98401.50;4918807;29;20087;-69
2022/01/08 14:19:41;;;;;;;1.35;0.88;;;;;;;3.16;67.62;98395.50;4918932;29;20039;-70
2022/01/08 14:22:10;;;;;;;0.60;0.60;;;;;;;3.15;68.16;98393.78;4919195;29;20032;-69
2022/01/08 14:24:42;;;;;;;0.63;0.63;;;;;;;3.37;70.49;98379.38;4918894;29;20032;-70
2022/01/08 14:27:13;;;;;;;0.73;0.73;;;;;;;3.26;67.16;98377.63;4918945;29;20606;-70
2022/01/08 14:29:41;;;;;;;9.30;4.93;;;;;;;3.12;68.27;98363.91;4918807;29;20075;-69
2022/01/08 14:32:09;;;;;;;0.75;0.75;;;;;;;3.03;67.74;98359.56;4918712;29;20088;-70
2022/01/08 14:34:47;;;;;;;2.90;2.65;;;;;;;3.04;68.36;98353.59;4918940;29;20044;-69
2022/01/08 14:37:26;;;;;;;2.38;2.17;;;;;;;3.13;68.56;98349.38;4918459;29;20110;-70
2022/01/08 14:39:52;;;;;;;2.38;0.85;;;;;;;3.16;69.65;98350.28;4933147;29;20056;-69
2022/01/08 14:42:19;;;;;;;0.50;0.50;;;;;;;3.15;67.94;98351.13;4918654;29;20122;-69
2022/01/08 14:44:53;;;;;;;1.85;1.77;;;;;;;3.04;68.30;98339.97;4918284;29;20501;-69
2022/01/08 14:47:34;;;;;;;2.55;1.02;;;;;;;2.96;71.92;98334.81;4918401;29;20063;-70
2022/01/08 14:49:59;;;;;;;1.27;1.27;;;;;;;2.84;69.91;98333.03;4918368;29;20028;-69
2022/01/08 14:52:25;;;;;;;1.73;1.23;;;;;;;2.88;70.47;98328.78;4918349;29;20075;-70
2022/01/08 14:54:51;;;;;;;0.60;0.60;;;;;;;2.67;72.30;98334.66;4918362;29;20044;-69
2022/01/08 14:57:17;;;;;;;0.75;0.75;;;;;;;2.61;72.04;98334.63;4918211;29;20039;-69
2022/01/08 14:59:42;;;;;;;0.70;0.70;;;;;;;2.70;70.71;98329.53;4918334;29;20020;-69
2022/01/08 15:02:07;;;;;;;0.50;0.50;;;;;;;2.73;69.34;98324.44;4918096;29;20494;-69
2022/01/08 15:04:32;;;;;;;2.03;1.92;;;;;;;2.63;70.68;98315.03;4918249;29;20039;-70
2022/01/08 15:06:58;;;;;;;8.23;3.13;;;;;;;2.74;72.72;98308.25;4917762;29;20068;-69
2022/01/08 15:09:25;;;;;;;6.03;3.10;;;;;;;2.71;71.87;98304.84;4918010;29;20035;-69
2022/01/08 15:11:51;;;;;;;4.03;2.17;;;;;;;2.79;71.28;98298.03;4917981;29;20434;-69
2022/01/08 15:14:16;;;;;;;3.30;2.70;;;;;;;2.81;71.92;98298.94;4916835;29;20028;-69
2022/01/08 15:16:41;;;;;;;0.80;0.73;;;;;;;2.80;69.56;98285.28;4917547;29;20058;-70
2022/01/08 15:19:07;;;;;;;3.58;0.82;;;;;;;2.93;68.92;98287.88;4917913;29;20028;-70
2022/01/08 15:21:32;;;;;;;0.70;0.70;;;;;;;2.85;69.43;98287.84;4914425;29;20039;-69
2022/01/08 15:23:57;;;;;;;3.28;2.97;;;;;;;2.77;69.64;98280.16;4915603;29;20039;-70
2022/01/08 15:26:23;;;;;;;2.72;2.53;;;;;;;2.73;70.01;98283.53;4916962;29;20091;-69
2022/01/08 15:28:48;;;;;;;17.05;2.17;;;;;;;2.63;70.68;98279.22;4917741;29;20531;-70
2022/01/08 15:31:13;;;;;;;1.20;1.20;;;;;;;2.29;74.73;98281.56;4917701;29;20036;-69
2022/01/08 15:33:39;;;;;;;0.88;0.88;;;;;;;2.13;76.36;98269.53;4917717;29;20036;-69
2022/01/08 15:36:05;;;;;;;0.85;0.85;;;;;;;2.13;77.01;98274.66;4917462;29;20047;-69
2022/01/08 15:38:31;;;;;;;1.80;1.67;;;;;;;1.89;78.04;98269.34;4917387;29;20024;-69
2022/01/08 15:40:57;;;;;;;1.30;0.93;;;;;;;1.75;79.49;98266.69;4917417;29;20035;-69
2022/01/08 15:43:22;;;;;;;5.28;1.50;;;;;;;1.62;81.07;98269.94;4917510;29;20095;-69
2022/01/08 15:45:47;;;;;;;1.83;1.73;;;;;;;1.65;81.25;98265.75;4917285;29;20112;-69
2022/01/08 15:48:13;;;;;;;0.88;0.88;;;;;;;1.71;81.37;98260.69;4917415;29;20458;-69
2022/01/08 15:50:39;;;;;;;0.77;0.77;;;;;;;1.74;81.24;98258.16;4917212;29;20035;-69
2022/01/08 15:53:05;;;;;;;1.52;1.33;;;;;;;1.74;81.16;98253.06;4916172;29;20035;-69
2022/01/08 15:55:30;;;;;;;2.28;2.05;;;;;;;1.79;82.10;98243.72;4917205;29;20027;-69
2022/01/08 15:57:56;;;;;;;0.90;0.90;;;;;;;1.85;82.60;98244.63;4917256;29;20041;-69
2022/01/08 16:00:21;;;;;;;5.93;2.67;;;;;;;1.87;83.46;98245.47;4917015;29;20028;-68
2022/01/08 16:02:47;;;;;;;1.83;1.73;;;;;;;1.90;81.46;98232.75;4917256;29;20493;-69
2022/01/08 16:05:15;;;;;;;3.35;2.63;;;;;;;1.76;82.26;98223.25;4917045;29;20032;-69
2022/01/08 16:07:41;;;;;;;11.30;3.42;;;;;;;1.80;82.13;98219.91;4916834;29;20601;-69
2022/01/08 16:10:07;;;;;;;11.73;5.60;;;;;;;1.70;81.51;98202.78;4916780;29;20127;-70
2022/01/08 16:12:32;;;;;;;7.07;4.03;;;;;;;1.95;81.28;98196.16;4917120;29;20118;-70
2022/01/08 16:14:58;;;;;;;7.82;3.15;;;;;;;1.89;77.75;98193.56;4916883;29;20099;-70
2022/01/08 16:17:25;;;;;;;3.80;2.40;;;;;;;1.96;78.10;98181.69;4916608;29;20024;-69
2022/01/08 16:19:51;;;;;;;0.85;0.85;;;;;;;2.25;70.73;98172.50;4917327;29;20036;-72
2022/01/08 16:22:16;;;;;;;1.33;1.33;;;;;;;2.40;70.83;98160.63;4916707;29;20115;-72
2022/01/08 16:24:41;;;;;;;0.68;0.68;;;;;;;2.45;69.11;98143.59;4916783;29;20058;-72
2022/01/08 16:27:07;;;;;;;0.50;0.50;;;;;;;2.51;74.11;98141.06;4916512;29;20035;-72
2022/01/08 16:29:33;;;;;;;0.60;0.60;;;;;;;2.40;70.63;98129.94;4916836;29;20020;-71
2022/01/08 16:31:58;;;;;;;14.65;1.00;;;;;;;2.44;72.32;98131.69;4916515;29;20032;-72
2022/01/08 16:34:23;;;;;;;0.57;0.57;;;;;;;2.52;72.36;98124.91;4916621;29;20107;-71
2022/01/08 16:36:49;;;;;;;0.70;0.70;;;;;;;2.49;70.81;98109.53;4915871;29;20186;-72
2022/01/08 16:39:15;;;;;;;0.50;0.50;;;;;;;2.55;71.40;98105.28;4915734;29;20098;-73
2022/01/08 16:41:44;;;;;;;0.52;0.52;;;;;;;2.71;70.53;98100.25;4916789;29;20115;-72
2022/01/08 16:44:11;;;;;;;0.50;0.50;;;;;;;2.62;71.10;98095.94;4916475;29;20080;-72
2022/01/08 16:46:37;;;;;;;1.20;1.13;;;;;;;2.61;68.86;98089.13;4916033;29;20057;-74
2022/01/08 16:49:03;;;;;;;1.35;1.25;;;;;;;2.64;67.36;98081.44;4916149;29;20494;-71
2022/01/08 16:51:28;;;;;;;1.50;1.40;;;;;;;2.29;73.84;98079.66;4916429;29;20091;-72
2022/01/08 16:53:54;;;;;;;2.15;1.42;;;;;;;2.25;76.32;98057.47;4916216;29;20034;-71
2022/01/08 16:56:19;;;;;;;1.38;1.38;;;;;;;2.10;77.80;98062.53;4916135;29;20024;-70
2022/01/08 16:58:45;;;;;;;2.95;2.08;;;;;;;2.04;79.17;98049.75;4916261;29;20532;-73
2022/01/08 17:01:10;;;;;;;1.33;1.33;;;;;;;1.92;80.65;98053.09;4916176;29;20039;-72
2022/01/08 17:03:35;;;;;;;2.40;1.05;;;;;;;1.89;81.95;98049.69;4916179;29;20034;-71
2022/01/08 17:06:01;;;;;;;1.33;1.33;;;;;;;1.76;83.18;98034.28;4915940;29;20028;-70
2022/01/08 17:08:26;;;;;;;2.13;1.90;;;;;;;1.76;82.31;98039.41;4915894;29;20020;-68
2022/01/08 17:10:55;;;;;;;2.45;1.60;;;;;;;1.83;82.48;98019.00;4915763;29;20039;-72
2022/01/08 17:13:22;;;;;;;1.80;1.70;;;;;;;1.82;83.30;98023.25;4915992;29;20026;-71
2022/01/08 17:15:47;;;;;;;1.92;1.83;;;;;;;1.78;84.32;98011.31;4915775;29;20063;-69
2022/01/08 17:18:13;;;;;;;1.05;1.05;;;;;;;1.62;83.42;98012.94;4915939;29;20023;-73
2022/01/08 17:20:38;;;;;;;1.00;1.00;;;;;;;1.77;83.17;98017.28;4915883;29;20024;-70
2022/01/08 17:23:04;;;;;;;1.67;1.58;;;;;;;1.69;83.71;98004.47;4915864;29;20032;-71
2022/01/08 17:25:29;;;;;;;1.95;1.88;;;;;;;1.70;84.07;97993.41;4915961;29;20031;-72
2022/01/08 17:27:55;;;;;;;1.30;1.20;;;;;;;1.68;83.88;97995.09;4915949;29;20031;-72
2022/01/08 17:30:21;;;;;;;1.10;1.10;;;;;;;1.53;84.03;97988.22;4915645;29;20513;-72
2022/01/08 17:32:47;;;;;;;2.03;1.83;;;;;;;1.46;84.67;97990.75;4915884;29;20478;-72
2022/01/08 17:35:13;;;;;;;0.90;0.90;;;;;;;1.37;85.25;98003.44;4915752;29;20035;-72
2022/01/08 17:37:38;;;;;;;6.55;2.75;;;;;;;1.35;85.55;97990.66;4915405;29;20024;-73
2022/01/08 17:40:04;;;;;;;1.88;1.77;;;;;;;1.29;86.06;98001.69;4915933;29;20521;-72
2022/01/08 17:42:30;;;;;;;6.22;2.15;;;;;;;1.39;85.67;97996.66;4915869;29;20028;-73
2022/01/08 17:44:56;;;;;;;2.53;1.63;;;;;;;1.46;86.14;97990.75;4915518;29;20031;-72
2022/01/08 17:47:21;;;;;;;1.80;1.70;;;;;;;1.50;85.53;97989.91;4915476;29;20027;-69
2022/01/08 17:49:47;;;;;;;1.95;1.88;;;;;;;1.53;84.57;97982.25;4917765;29;20032;-71
2022/01/08 17:52:13;;;;;;;4.65;3.10;;;;;;;1.53;84.74;97979.72;4919918;29;20036;-73
2022/01/08 17:54:39;;;;;;;5.85;3.15;;;;;;;1.66;85.19;97971.25;4919588;29;20080;-73
2022/01/08 17:57:07;;;;;;;10.25;3.60;;;;;;;1.68;85.33;97969.56;4919344;29;20036;-74
2022/01/08 17:59:33;;;;;;;3.65;2.75;;;;;;;1.56;84.30;97959.31;4919465;29;20032;-72
2022/01/08 18:01:59;;;;;;;1.02;0.95;;;;;;;1.65;84.01;97961.91;4918869;29;20028;-71
2022/01/08 18:04:24;;;;;;;1.00;1.00;;;;;;;1.57;83.55;97953.34;4919225;29;20043;-74
2022/01/08 18:06:52;;;;;;;2.45;2.25;;;;;;;1.59;84.80;97949.09;4919277;29;20466;-73
2022/01/08 18:09:19;;;;;;;2.22;1.52;;;;;;;1.67;83.31;97947.44;4919034;29;20040;-71
2022/01/08 18:11:45;;;;;;;0.80;0.80;;;;;;;1.50;84.48;97933.78;4918984;29;20028;-70
2022/01/08 18:14:10;;;;;;;1.42;1.42;;;;;;;1.33;85.34;97931.13;4919213;29;20071;-70
2022/01/08 18:16:36;;;;;;;1.85;1.75;;;;;;;1.32;85.69;97916.66;4918561;29;20106;-68
2022/01/08 18:19:01;;;;;;;1.00;1.00;;;;;;;1.36;85.39;97920.09;4919013;29;20106;-70
2022/01/08 18:21:26;;;;;;;1.55;1.45;;;;;;;1.40;84.98;97896.25;4918621;29;20486;-70
2022/01/08 18:23:52;;;;;;;1.42;1.42;;;;;;;1.50;82.93;97890.38;4918998;29;20434;-71
2022/01/08 18:26:17;;;;;;;2.25;1.67;;;;;;;1.64;82.12;97890.41;4918746;29;20051;-67
2022/01/08 18:28:42;;;;;;;2.22;1.52;;;;;;;1.74;83.54;97882.78;4918868;29;20418;-68
2022/01/08 18:31:08;;;;;;;2.30;1.92;;;;;;;2.03;83.79;97867.50;4918591;29;20473;-68
2022/01/08 18:33:38;;;;;;;6.45;3.42;;;;;;;1.91;82.36;97864.09;4918751;29;20076;-69
2022/01/08 18:36:07;;;;;;;3.53;1.92;;;;;;;1.97;82.51;97853.88;4918428;29;20124;-68
2022/01/08 18:38:33;;;;;;;1.67;1.65;;;;;;;1.85;80.96;97854.72;4918599;29;20079;-69
2022/01/08 18:40:58;;;;;;;0.70;0.70;;;;;;;1.90;81.45;97841.94;4918711;29;20040;-68
2022/01/08 18:43:23;;;;;;;2.13;1.85;;;;;;;1.94;82.23;97843.66;4918525;29;20032;-66
2022/01/08 18:45:49;;;;;;;2.22;2.03;;;;;;;1.85;84.73;97833.44;4918378;29;20072;-67
2022/01/08 18:48:14;;;;;;;1.10;1.10;;;;;;;1.76;84.64;97832.56;4918348;29;20028;-70